sensor_id;sensor_type;location;lat;lon;timestamp;P1;durP1;ratioP1;P2;durP2;ratioP2
76290;SDS011;65100;46.884;17.410;2024-02-26T11:32:37;6.90;;;2.67;;
76290;SDS011;65100;46.884;17.410;2024-02-26T11:35:06;7.53;;;2.95;;
76290;SDS011;65100;46.884;17.410;2024-02-26T11:37:33;8.38;;;2.80;;
76290;SDS011;65100;46.884;17.410;2024-02-26T11:39:59;6.43;;;2.80;;
76290;SDS011;65100;46.884;17.410;2024-02-26T11:42:28;6.80;;;3.22;;
76290;SDS011;65100;46.884;17.410;2024-02-26T11:44:55;6.95;;;2.90;;
76290;SDS011;65100;46.884;17.410;2024-02-26T11:47:26;9.13;;;2.70;;
76290;SDS011;65100;46.884;17.410;2024-02-26T11:49:52;6.87;;;2.60;;
76290;SDS011;65100;46.884;17.410;2024-02-26T11:52:21;6.43;;;2.40;;
76290;SDS011;65100;46.884;17.410;2024-02-26T11:57:22;5.93;;;2.53;;
76290;SDS011;65100;46.884;17.410;2024-02-26T11:59:50;6.38;;;2.63;;
76290;SDS011;65100;46.884;17.410;2024-02-26T12:03:02;7.55;;;2.40;;
76290;SDS011;65100;46.884;17.410;2024-02-26T12:05:09;6.30;;;2.45;;
76290;SDS011;65100;46.884;17.410;2024-02-26T12:07:39;6.50;;;2.20;;
76290;SDS011;65100;46.884;17.410;2024-02-26T12:13:12;6.72;;;2.10;;
76290;SDS011;65100;46.884;17.410;2024-02-26T12:15:45;5.53;;;2.10;;
76290;SDS011;65100;46.884;17.410;2024-02-26T12:18:22;5.82;;;1.88;;
76290;SDS011;65100;46.884;17.410;2024-02-26T12:20:57;6.70;;;2.57;;
76290;SDS011;65100;46.884;17.410;2024-02-26T12:23:27;6.20;;;2.20;;
76290;SDS011;65100;46.884;17.410;2024-02-26T12:25:53;6.38;;;2.17;;
76290;SDS011;65100;46.884;17.410;2024-02-26T12:28:26;5.80;;;2.20;;
76290;SDS011;65100;46.884;17.410;2024-02-26T12:30:54;5.03;;;1.80;;
76290;SDS011;65100;46.884;17.410;2024-02-26T12:43:07;4.95;;;1.90;;
76290;SDS011;65100;46.884;17.410;2024-02-26T12:45:39;5.50;;;1.95;;
76290;SDS011;65100;46.884;17.410;2024-02-26T12:48:05;5.43;;;2.00;;
76290;SDS011;65100;46.884;17.410;2024-02-26T12:50:31;4.45;;;1.77;;
76290;SDS011;65100;46.884;17.410;2024-02-26T12:52:57;4.80;;;1.80;;
76290;SDS011;65100;46.884;17.410;2024-02-26T12:55:23;5.73;;;2.00;;
76290;SDS011;65100;46.884;17.410;2024-02-26T12:57:51;5.28;;;1.95;;
76290;SDS011;65100;46.884;17.410;2024-02-26T13:00:18;6.45;;;2.10;;
76290;SDS011;65100;46.884;17.410;2024-02-26T13:02:47;6.10;;;2.10;;
76290;SDS011;65100;46.884;17.410;2024-02-26T13:05:14;5.82;;;2.03;;
76290;SDS011;65100;46.884;17.410;2024-02-26T13:07:43;5.73;;;2.00;;
76290;SDS011;65100;46.884;17.410;2024-02-26T13:10:12;6.72;;;2.25;;
76290;SDS011;65100;46.884;17.410;2024-02-26T13:12:42;5.65;;;2.15;;
76290;SDS011;65100;46.884;17.410;2024-02-26T13:15:16;5.88;;;2.10;;
76290;SDS011;65100;46.884;17.410;2024-02-26T13:17:46;6.35;;;2.10;;
76290;SDS011;65100;46.884;17.410;2024-02-26T13:20:12;6.37;;;2.10;;
76290;SDS011;65100;46.884;17.410;2024-02-26T13:22:40;6.72;;;2.30;;
76290;SDS011;65100;46.884;17.410;2024-02-26T13:25:05;6.50;;;2.33;;
76290;SDS011;65100;46.884;17.410;2024-02-26T13:27:34;5.40;;;2.13;;
76290;SDS011;65100;46.884;17.410;2024-02-26T13:32:39;6.50;;;2.25;;
76290;SDS011;65100;46.884;17.410;2024-02-26T13:37:36;6.03;;;2.00;;
76290;SDS011;65100;46.884;17.410;2024-02-26T13:40:05;6.93;;;2.30;;
76290;SDS011;65100;46.884;17.410;2024-02-26T13:42:35;6.50;;;1.90;;
76290;SDS011;65100;46.884;17.410;2024-02-26T13:45:04;5.90;;;2.10;;
76290;SDS011;65100;46.884;17.410;2024-02-26T13:47:34;5.78;;;2.00;;
76290;SDS011;65100;46.884;17.410;2024-02-26T13:50:00;5.53;;;2.47;;
76290;SDS011;65100;46.884;17.410;2024-02-26T13:52:26;4.77;;;2.00;;
76290;SDS011;65100;46.884;17.410;2024-02-26T13:54:51;5.05;;;2.20;;
76290;SDS011;65100;46.884;17.410;2024-02-26T13:57:17;5.63;;;2.00;;
76290;SDS011;65100;46.884;17.410;2024-02-26T13:59:44;5.72;;;1.92;;
76290;SDS011;65100;46.884;17.410;2024-02-26T14:05:37;5.30;;;2.03;;
76290;SDS011;65100;46.884;17.410;2024-02-26T14:08:06;5.67;;;2.10;;
76290;SDS011;65100;46.884;17.410;2024-02-26T14:10:32;4.70;;;1.92;;
76290;SDS011;65100;46.884;17.410;2024-02-26T14:13:01;5.72;;;2.00;;
76290;SDS011;65100;46.884;17.410;2024-02-26T14:15:27;7.10;;;2.30;;
76290;SDS011;65100;46.884;17.410;2024-02-26T14:17:53;6.25;;;2.30;;
76290;SDS011;65100;46.884;17.410;2024-02-26T14:20:21;7.13;;;2.22;;
76290;SDS011;65100;46.884;17.410;2024-02-26T14:22:48;6.35;;;2.35;;
76290;SDS011;65100;46.884;17.410;2024-02-26T14:25:14;5.57;;;2.13;;
76290;SDS011;65100;46.884;17.410;2024-02-26T14:27:39;5.78;;;2.20;;
76290;SDS011;65100;46.884;17.410;2024-02-26T14:30:05;6.17;;;2.30;;
76290;SDS011;65100;46.884;17.410;2024-02-26T14:32:31;7.25;;;2.50;;
76290;SDS011;65100;46.884;17.410;2024-02-26T14:35:01;5.55;;;2.30;;
76290;SDS011;65100;46.884;17.410;2024-02-26T14:37:28;6.07;;;2.22;;
76290;SDS011;65100;46.884;17.410;2024-02-26T14:39:53;7.10;;;2.50;;
76290;SDS011;65100;46.884;17.410;2024-02-26T14:42:19;6.93;;;2.58;;
76290;SDS011;65100;46.884;17.410;2024-02-26T14:44:45;5.47;;;2.60;;
76290;SDS011;65100;46.884;17.410;2024-02-26T14:47:12;7.32;;;2.50;;
76290;SDS011;65100;46.884;17.410;2024-02-26T14:49:38;5.57;;;2.30;;
76290;SDS011;65100;46.884;17.410;2024-02-26T14:52:04;6.40;;;2.30;;
76290;SDS011;65100;46.884;17.410;2024-02-26T14:54:29;6.17;;;2.20;;
76290;SDS011;65100;46.884;17.410;2024-02-26T14:56:58;6.63;;;2.40;;
76290;SDS011;65100;46.884;17.410;2024-02-26T14:59:24;6.43;;;2.37;;
76290;SDS011;65100;46.884;17.410;2024-02-26T15:01:49;6.15;;;2.22;;
76290;SDS011;65100;46.884;17.410;2024-02-26T15:04:14;7.43;;;2.37;;
76290;SDS011;65100;46.884;17.410;2024-02-26T15:06:40;10.67;;;2.40;;
76290;SDS011;65100;46.884;17.410;2024-02-26T15:09:06;10.90;;;2.63;;
76290;SDS011;65100;46.884;17.410;2024-02-26T15:11:32;12.20;;;2.75;;
76290;SDS011;65100;46.884;17.410;2024-02-26T15:13:57;9.35;;;2.55;;
76290;SDS011;65100;46.884;17.410;2024-02-26T15:16:22;9.23;;;2.50;;
76290;SDS011;65100;46.884;17.410;2024-02-26T15:18:48;6.50;;;2.23;;
76290;SDS011;65100;46.884;17.410;2024-02-26T15:21:13;9.77;;;2.40;;
76290;SDS011;65100;46.884;17.410;2024-02-26T15:23:40;9.30;;;2.20;;
76290;SDS011;65100;46.884;17.410;2024-02-26T15:26:09;9.55;;;3.30;;
76290;SDS011;65100;46.884;17.410;2024-02-26T15:28:35;9.20;;;2.60;;
76290;SDS011;65100;46.884;17.410;2024-02-26T15:31:01;12.73;;;2.63;;
76290;SDS011;65100;46.884;17.410;2024-02-26T15:33:26;7.07;;;2.50;;
76290;SDS011;65100;46.884;17.410;2024-02-26T15:35:51;6.55;;;2.20;;
76290;SDS011;65100;46.884;17.410;2024-02-26T15:38:17;6.90;;;2.40;;
76290;SDS011;65100;46.884;17.410;2024-02-26T15:40:42;6.23;;;2.60;;
76290;SDS011;65100;46.884;17.410;2024-02-26T15:43:09;6.43;;;2.42;;
76290;SDS011;65100;46.884;17.410;2024-02-26T15:45:34;6.17;;;2.40;;
76290;SDS011;65100;46.884;17.410;2024-02-26T15:48:00;6.23;;;2.37;;
76290;SDS011;65100;46.884;17.410;2024-02-26T15:50:25;5.43;;;2.03;;
76290;SDS011;65100;46.884;17.410;2024-02-26T15:52:51;5.87;;;2.10;;
76290;SDS011;65100;46.884;17.410;2024-02-26T15:55:16;5.93;;;2.40;;
76290;SDS011;65100;46.884;17.410;2024-02-26T15:57:42;5.55;;;2.30;;
76290;SDS011;65100;46.884;17.410;2024-02-26T16:00:08;5.93;;;2.80;;
76290;SDS011;65100;46.884;17.410;2024-02-26T16:02:38;7.05;;;2.67;;
76290;SDS011;65100;46.884;17.410;2024-02-26T16:05:05;6.85;;;2.60;;
76290;SDS011;65100;46.884;17.410;2024-02-26T16:07:34;6.85;;;2.50;;
76290;SDS011;65100;46.884;17.410;2024-02-26T16:10:06;7.63;;;2.90;;
76290;SDS011;65100;46.884;17.410;2024-02-26T16:12:34;8.15;;;2.50;;
76290;SDS011;65100;46.884;17.410;2024-02-26T16:15:04;7.28;;;2.60;;
76290;SDS011;65100;46.884;17.410;2024-02-26T16:17:32;6.80;;;2.67;;
76290;SDS011;65100;46.884;17.410;2024-02-26T16:20:00;5.80;;;2.63;;
76290;SDS011;65100;46.884;17.410;2024-02-26T16:22:29;6.50;;;2.60;;
76290;SDS011;65100;46.884;17.410;2024-02-26T16:24:56;7.30;;;2.53;;
76290;SDS011;65100;46.884;17.410;2024-02-26T16:27:22;8.57;;;2.85;;
76290;SDS011;65100;46.884;17.410;2024-02-26T16:29:47;7.00;;;2.93;;
76290;SDS011;65100;46.884;17.410;2024-02-26T16:32:13;5.87;;;2.80;;
76290;SDS011;65100;46.884;17.410;2024-02-26T16:34:38;8.90;;;3.00;;
76290;SDS011;65100;46.884;17.410;2024-02-26T16:37:08;8.02;;;3.15;;
76290;SDS011;65100;46.884;17.410;2024-02-26T16:39:36;6.75;;;3.00;;
76290;SDS011;65100;46.884;17.410;2024-02-26T16:42:03;7.70;;;3.20;;
76290;SDS011;65100;46.884;17.410;2024-02-26T16:44:29;6.80;;;3.10;;
76290;SDS011;65100;46.884;17.410;2024-02-26T16:46:54;9.23;;;3.20;;
76290;SDS011;65100;46.884;17.410;2024-02-26T16:49:20;9.68;;;3.40;;
76290;SDS011;65100;46.884;17.410;2024-02-26T16:51:46;10.03;;;3.80;;
76290;SDS011;65100;46.884;17.410;2024-02-26T16:54:11;7.75;;;2.92;;
76290;SDS011;65100;46.884;17.410;2024-02-26T16:56:37;7.83;;;3.03;;
76290;SDS011;65100;46.884;17.410;2024-02-26T16:59:04;9.50;;;3.00;;
76290;SDS011;65100;46.884;17.410;2024-02-26T17:01:30;8.17;;;3.10;;
76290;SDS011;65100;46.884;17.410;2024-02-26T17:03:56;7.10;;;2.95;;
76290;SDS011;65100;46.884;17.410;2024-02-26T17:06:21;8.40;;;3.13;;
76290;SDS011;65100;46.884;17.410;2024-02-26T17:08:48;8.73;;;3.47;;
76290;SDS011;65100;46.884;17.410;2024-02-26T17:11:15;7.45;;;3.30;;
76290;SDS011;65100;46.884;17.410;2024-02-26T17:13:41;11.10;;;3.50;;
76290;SDS011;65100;46.884;17.410;2024-02-26T17:16:07;8.43;;;3.47;;
76290;SDS011;65100;46.884;17.410;2024-02-26T17:18:33;7.88;;;3.20;;
76290;SDS011;65100;46.884;17.410;2024-02-26T17:20:58;7.53;;;3.27;;
76290;SDS011;65100;46.884;17.410;2024-02-26T17:23:24;6.47;;;2.50;;
76290;SDS011;65100;46.884;17.410;2024-02-26T17:25:51;10.33;;;4.37;;
76290;SDS011;65100;46.884;17.410;2024-02-26T17:28:16;8.55;;;3.97;;
76290;SDS011;65100;46.884;17.410;2024-02-26T17:30:43;7.33;;;2.97;;
76290;SDS011;65100;46.884;17.410;2024-02-26T17:33:08;6.63;;;2.58;;
76290;SDS011;65100;46.884;17.410;2024-02-26T17:35:34;9.20;;;2.60;;
76290;SDS011;65100;46.884;17.410;2024-02-26T17:37:59;16.47;;;5.43;;
76290;SDS011;65100;46.884;17.410;2024-02-26T17:40:26;54.63;;;16.67;;
76290;SDS011;65100;46.884;17.410;2024-02-26T17:42:53;13.30;;;5.13;;
76290;SDS011;65100;46.884;17.410;2024-02-26T17:45:19;115.00;;;29.38;;
76290;SDS011;65100;46.884;17.410;2024-02-26T17:47:47;119.82;;;31.98;;
76290;SDS011;65100;46.884;17.410;2024-02-26T17:50:15;47.60;;;14.17;;
76290;SDS011;65100;46.884;17.410;2024-02-26T17:52:41;7.45;;;3.10;;
76290;SDS011;65100;46.884;17.410;2024-02-26T17:55:07;7.43;;;3.25;;
76290;SDS011;65100;46.884;17.410;2024-02-26T17:57:33;8.30;;;3.90;;
76290;SDS011;65100;46.884;17.410;2024-02-26T17:59:58;6.93;;;2.80;;
76290;SDS011;65100;46.884;17.410;2024-02-26T18:02:24;7.20;;;2.83;;
76290;SDS011;65100;46.884;17.410;2024-02-26T18:04:49;5.57;;;2.60;;
76290;SDS011;65100;46.884;17.410;2024-02-26T18:07:15;6.40;;;2.53;;
76290;SDS011;65100;46.884;17.410;2024-02-26T18:09:40;6.67;;;2.40;;
76290;SDS011;65100;46.884;17.410;2024-02-26T18:12:06;5.80;;;2.80;;
76290;SDS011;65100;46.884;17.410;2024-02-26T18:14:31;6.63;;;2.85;;
76290;SDS011;65100;46.884;17.410;2024-02-26T18:16:57;6.67;;;2.60;;
76290;SDS011;65100;46.884;17.410;2024-02-26T18:19:23;6.50;;;2.53;;
76290;SDS011;65100;46.884;17.410;2024-02-26T18:21:48;6.00;;;2.58;;
76290;SDS011;65100;46.884;17.410;2024-02-26T18:24:14;7.63;;;3.57;;
76290;SDS011;65100;46.884;17.410;2024-02-26T18:26:42;6.85;;;2.95;;
76290;SDS011;65100;46.884;17.410;2024-02-26T18:29:08;6.77;;;2.77;;
76290;SDS011;65100;46.884;17.410;2024-02-26T18:31:34;7.38;;;3.10;;
76290;SDS011;65100;46.884;17.410;2024-02-26T18:34:00;6.30;;;3.00;;
76290;SDS011;65100;46.884;17.410;2024-02-26T18:36:25;7.85;;;2.97;;
76290;SDS011;65100;46.884;17.410;2024-02-26T18:38:51;8.60;;;3.67;;
76290;SDS011;65100;46.884;17.410;2024-02-26T18:41:17;9.15;;;3.25;;
76290;SDS011;65100;46.884;17.410;2024-02-26T18:43:50;7.40;;;3.10;;
76290;SDS011;65100;46.884;17.410;2024-02-26T18:46:17;7.30;;;3.13;;
76290;SDS011;65100;46.884;17.410;2024-02-26T18:48:42;9.17;;;3.47;;
76290;SDS011;65100;46.884;17.410;2024-02-26T18:51:09;7.53;;;2.70;;
76290;SDS011;65100;46.884;17.410;2024-02-26T18:53:36;6.50;;;2.75;;
76290;SDS011;65100;46.884;17.410;2024-02-26T18:56:04;6.88;;;2.90;;
76290;SDS011;65100;46.884;17.410;2024-02-26T18:58:30;6.43;;;2.83;;
76290;SDS011;65100;46.884;17.410;2024-02-26T19:00:55;6.73;;;3.03;;
76290;SDS011;65100;46.884;17.410;2024-02-26T19:03:21;6.60;;;2.90;;
76290;SDS011;65100;46.884;17.410;2024-02-26T19:05:46;6.97;;;3.30;;
76290;SDS011;65100;46.884;17.410;2024-02-26T19:08:12;6.57;;;3.10;;
76290;SDS011;65100;46.884;17.410;2024-02-26T19:10:39;7.20;;;2.83;;
76290;SDS011;65100;46.884;17.410;2024-02-26T19:13:05;7.32;;;3.00;;
76290;SDS011;65100;46.884;17.410;2024-02-26T19:15:30;7.10;;;3.03;;
76290;SDS011;65100;46.884;17.410;2024-02-26T19:17:57;8.27;;;3.70;;
76290;SDS011;65100;46.884;17.410;2024-02-26T19:20:23;8.83;;;3.67;;
76290;SDS011;65100;46.884;17.410;2024-02-26T19:22:48;9.37;;;3.97;;
76290;SDS011;65100;46.884;17.410;2024-02-26T19:25:14;7.82;;;3.67;;
76290;SDS011;65100;46.884;17.410;2024-02-26T19:27:40;9.70;;;4.00;;
76290;SDS011;65100;46.884;17.410;2024-02-26T19:30:07;7.70;;;3.80;;
76290;SDS011;65100;46.884;17.410;2024-02-26T19:32:33;8.07;;;3.33;;
76290;SDS011;65100;46.884;17.410;2024-02-26T19:34:58;6.72;;;3.10;;
76290;SDS011;65100;46.884;17.410;2024-02-26T19:37:25;8.13;;;3.27;;
76290;SDS011;65100;46.884;17.410;2024-02-26T19:39:50;7.22;;;3.20;;
76290;SDS011;65100;46.884;17.410;2024-02-26T19:42:16;9.43;;;3.63;;
76290;SDS011;65100;46.884;17.410;2024-02-26T19:44:41;8.68;;;3.60;;
76290;SDS011;65100;46.884;17.410;2024-02-26T19:47:08;8.05;;;3.40;;
76290;SDS011;65100;46.884;17.410;2024-02-26T19:49:34;8.20;;;3.60;;
76290;SDS011;65100;46.884;17.410;2024-02-26T19:51:59;8.00;;;3.73;;
76290;SDS011;65100;46.884;17.410;2024-02-26T19:54:24;8.03;;;3.33;;
76290;SDS011;65100;46.884;17.410;2024-02-26T19:56:50;6.72;;;2.83;;
76290;SDS011;65100;46.884;17.410;2024-02-26T19:59:16;6.83;;;3.10;;
76290;SDS011;65100;46.884;17.410;2024-02-26T20:01:42;7.53;;;3.30;;
76290;SDS011;65100;46.884;17.410;2024-02-26T20:04:07;7.23;;;3.10;;
76290;SDS011;65100;46.884;17.410;2024-02-26T20:06:38;7.70;;;3.10;;
76290;SDS011;65100;46.884;17.410;2024-02-26T20:09:05;8.43;;;3.35;;
76290;SDS011;65100;46.884;17.410;2024-02-26T20:11:30;8.33;;;3.80;;
76290;SDS011;65100;46.884;17.410;2024-02-26T20:13:56;9.23;;;3.90;;
76290;SDS011;65100;46.884;17.410;2024-02-26T20:16:21;10.43;;;3.97;;
76290;SDS011;65100;46.884;17.410;2024-02-26T20:18:46;8.47;;;3.90;;
76290;SDS011;65100;46.884;17.410;2024-02-26T20:21:13;9.50;;;3.92;;
76290;SDS011;65100;46.884;17.410;2024-02-26T20:23:38;8.33;;;3.80;;
76290;SDS011;65100;46.884;17.410;2024-02-26T20:26:04;8.90;;;3.90;;
76290;SDS011;65100;46.884;17.410;2024-02-26T20:28:29;9.50;;;4.20;;
76290;SDS011;65100;46.884;17.410;2024-02-26T20:30:59;9.98;;;4.75;;
76290;SDS011;65100;46.884;17.410;2024-02-26T20:33:24;12.00;;;5.03;;
76290;SDS011;65100;46.884;17.410;2024-02-26T20:35:50;10.13;;;5.03;;
76290;SDS011;65100;46.884;17.410;2024-02-26T20:38:16;10.05;;;4.40;;
76290;SDS011;65100;46.884;17.410;2024-02-26T20:40:42;9.90;;;4.47;;
76290;SDS011;65100;46.884;17.410;2024-02-26T20:43:08;10.20;;;3.97;;
76290;SDS011;65100;46.884;17.410;2024-02-26T20:45:33;9.25;;;4.00;;
76290;SDS011;65100;46.884;17.410;2024-02-26T20:47:59;10.27;;;3.83;;
76290;SDS011;65100;46.884;17.410;2024-02-26T20:50:24;9.83;;;4.43;;
76290;SDS011;65100;46.884;17.410;2024-02-26T20:52:50;9.75;;;4.35;;
76290;SDS011;65100;46.884;17.410;2024-02-26T20:55:16;10.60;;;5.93;;
76290;SDS011;65100;46.884;17.410;2024-02-26T20:57:41;12.50;;;5.20;;
76290;SDS011;65100;46.884;17.410;2024-02-26T21:00:07;12.15;;;5.03;;
76290;SDS011;65100;46.884;17.410;2024-02-26T21:02:33;9.98;;;4.60;;
76290;SDS011;65100;46.884;17.410;2024-02-26T21:04:59;10.30;;;4.40;;
76290;SDS011;65100;46.884;17.410;2024-02-26T21:07:25;9.60;;;4.53;;
76290;SDS011;65100;46.884;17.410;2024-02-26T21:09:50;11.10;;;4.90;;
76290;SDS011;65100;46.884;17.410;2024-02-26T21:12:17;9.70;;;4.78;;
76290;SDS011;65100;46.884;17.410;2024-02-26T21:14:43;11.37;;;4.93;;
76290;SDS011;65100;46.884;17.410;2024-02-26T21:17:08;10.38;;;5.10;;
76290;SDS011;65100;46.884;17.410;2024-02-26T21:19:34;16.07;;;7.77;;
76290;SDS011;65100;46.884;17.410;2024-02-26T21:22:01;14.00;;;6.15;;
76290;SDS011;65100;46.884;17.410;2024-02-26T21:24:26;11.10;;;5.27;;
76290;SDS011;65100;46.884;17.410;2024-02-26T21:26:52;10.97;;;4.83;;
76290;SDS011;65100;46.884;17.410;2024-02-26T21:29:17;10.50;;;4.90;;
76290;SDS011;65100;46.884;17.410;2024-02-26T21:31:42;9.77;;;4.97;;
76290;SDS011;65100;46.884;17.410;2024-02-26T21:34:08;10.73;;;5.33;;
76290;SDS011;65100;46.884;17.410;2024-02-26T21:36:34;9.80;;;4.65;;
76290;SDS011;65100;46.884;17.410;2024-02-26T21:39:01;11.18;;;4.85;;
76290;SDS011;65100;46.884;17.410;2024-02-26T21:41:27;11.10;;;5.63;;
76290;SDS011;65100;46.884;17.410;2024-02-26T21:43:52;12.90;;;5.50;;
76290;SDS011;65100;46.884;17.410;2024-02-26T21:46:20;11.32;;;5.43;;
76290;SDS011;65100;46.884;17.410;2024-02-26T21:48:46;12.17;;;4.93;;
76290;SDS011;65100;46.884;17.410;2024-02-26T21:51:12;11.23;;;5.18;;
76290;SDS011;65100;46.884;17.410;2024-02-26T21:53:38;11.52;;;4.55;;
76290;SDS011;65100;46.884;17.410;2024-02-26T21:56:04;10.63;;;5.30;;
76290;SDS011;65100;46.884;17.410;2024-02-26T21:58:31;9.40;;;4.67;;
76290;SDS011;65100;46.884;17.410;2024-02-26T22:00:57;9.43;;;4.25;;
76290;SDS011;65100;46.884;17.410;2024-02-26T22:03:22;11.40;;;4.30;;
76290;SDS011;65100;46.884;17.410;2024-02-26T22:05:48;11.90;;;5.20;;
76290;SDS011;65100;46.884;17.410;2024-02-26T22:08:15;11.07;;;5.38;;
76290;SDS011;65100;46.884;17.410;2024-02-26T22:13:47;10.13;;;5.15;;
76290;SDS011;65100;46.884;17.410;2024-02-26T22:16:13;11.93;;;5.20;;
76290;SDS011;65100;46.884;17.410;2024-02-26T22:18:39;12.50;;;5.33;;
76290;SDS011;65100;46.884;17.410;2024-02-26T22:21:06;10.30;;;4.47;;
76290;SDS011;65100;46.884;17.410;2024-02-26T22:23:33;10.88;;;4.57;;
76290;SDS011;65100;46.884;17.410;2024-02-26T22:25:59;10.60;;;4.87;;
76290;SDS011;65100;46.884;17.410;2024-02-26T22:28:25;11.35;;;4.85;;
76290;SDS011;65100;46.884;17.410;2024-02-26T22:30:50;10.77;;;4.70;;
76290;SDS011;65100;46.884;17.410;2024-02-26T22:33:16;9.82;;;4.72;;
76290;SDS011;65100;46.884;17.410;2024-02-26T22:35:41;11.47;;;5.37;;
76290;SDS011;65100;46.884;17.410;2024-02-26T22:38:07;10.50;;;4.63;;
76290;SDS011;65100;46.884;17.410;2024-02-26T22:40:33;12.85;;;5.28;;
76290;SDS011;65100;46.884;17.410;2024-02-26T22:42:58;10.47;;;5.00;;
76290;SDS011;65100;46.884;17.410;2024-02-26T22:45:24;11.07;;;4.80;;
76290;SDS011;65100;46.884;17.410;2024-02-26T22:47:51;10.50;;;4.95;;
76290;SDS011;65100;46.884;17.410;2024-02-26T22:50:17;10.45;;;4.65;;
76290;SDS011;65100;46.884;17.410;2024-02-26T22:52:43;10.67;;;4.70;;
76290;SDS011;65100;46.884;17.410;2024-02-26T22:55:08;9.82;;;4.70;;
76290;SDS011;65100;46.884;17.410;2024-02-26T22:57:34;10.40;;;5.30;;
76290;SDS011;65100;46.884;17.410;2024-02-26T22:59:59;9.50;;;4.60;;
76290;SDS011;65100;46.884;17.410;2024-02-26T23:02:35;10.70;;;4.50;;
76290;SDS011;65100;46.884;17.410;2024-02-26T23:05:00;10.23;;;4.27;;
76290;SDS011;65100;46.884;17.410;2024-02-26T23:07:26;9.90;;;4.60;;
76290;SDS011;65100;46.884;17.410;2024-02-26T23:09:51;9.60;;;4.78;;
76290;SDS011;65100;46.884;17.410;2024-02-26T23:12:17;10.67;;;4.97;;
76290;SDS011;65100;46.884;17.410;2024-02-26T23:14:42;9.33;;;4.70;;
76290;SDS011;65100;46.884;17.410;2024-02-26T23:17:08;11.87;;;4.63;;
76290;SDS011;65100;46.884;17.410;2024-02-26T23:19:34;11.23;;;5.15;;
76290;SDS011;65100;46.884;17.410;2024-02-26T23:21:59;11.07;;;4.60;;
76290;SDS011;65100;46.884;17.410;2024-02-26T23:24:25;10.47;;;4.87;;
76290;SDS011;65100;46.884;17.410;2024-02-26T23:26:51;9.70;;;4.50;;
76290;SDS011;65100;46.884;17.410;2024-02-26T23:29:16;9.00;;;4.70;;
76290;SDS011;65100;46.884;17.410;2024-02-26T23:31:42;10.37;;;4.90;;
76290;SDS011;65100;46.884;17.410;2024-02-26T23:34:07;10.55;;;4.57;;
76290;SDS011;65100;46.884;17.410;2024-02-26T23:36:32;10.13;;;4.70;;
76290;SDS011;65100;46.884;17.410;2024-02-26T23:38:58;9.53;;;4.50;;
76290;SDS011;65100;46.884;17.410;2024-02-26T23:41:25;9.32;;;4.25;;
76290;SDS011;65100;46.884;17.410;2024-02-26T23:43:52;9.75;;;4.57;;
76290;SDS011;65100;46.884;17.410;2024-02-26T23:46:18;11.23;;;4.27;;
76290;SDS011;65100;46.884;17.410;2024-02-26T23:48:43;11.18;;;4.63;;
76290;SDS011;65100;46.884;17.410;2024-02-26T23:51:09;9.03;;;4.23;;
76290;SDS011;65100;46.884;17.410;2024-02-26T23:53:34;11.25;;;4.70;;
76290;SDS011;65100;46.884;17.410;2024-02-26T23:56:00;9.00;;;4.37;;
76290;SDS011;65100;46.884;17.410;2024-02-26T23:58:25;9.53;;;4.37;;
